createdAt,value
2018-07-11T00:00:40.737Z,13.95
2018-07-11T00:01:40.734Z,14.02
2018-07-11T00:02:40.735Z,14.06
2018-07-11T00:03:40.743Z,14.02
2018-07-11T00:04:40.734Z,13.99
2018-07-11T00:05:40.741Z,13.96
2018-07-11T00:06:40.740Z,13.88
2018-07-11T00:07:40.747Z,13.91
2018-07-11T00:08:40.744Z,13.92
2018-07-11T00:09:40.738Z,13.84
2018-07-11T00:10:40.741Z,13.91
2018-07-11T00:11:40.741Z,13.96
2018-07-11T00:12:40.742Z,13.99
2018-07-11T00:13:40.739Z,13.88
2018-07-11T00:14:40.742Z,13.95
2018-07-11T00:15:40.743Z,13.92
2018-07-11T00:16:40.745Z,13.80
2018-07-11T00:17:40.747Z,13.83
2018-07-11T00:18:40.747Z,13.79
2018-07-11T00:19:40.744Z,13.88
2018-07-11T00:20:40.747Z,13.91
2018-07-11T00:21:40.747Z,13.80
2018-07-11T00:22:40.748Z,13.88
2018-07-11T00:23:40.750Z,13.87
2018-07-11T00:24:40.770Z,13.81
2018-07-11T00:25:40.752Z,13.83
2018-07-11T00:26:40.751Z,13.84
2018-07-11T00:27:40.751Z,13.89
2018-07-11T00:28:40.763Z,13.89
2018-07-11T00:29:40.752Z,13.83
2018-07-11T00:30:40.754Z,13.87
2018-07-11T00:31:40.754Z,13.89
2018-07-11T00:32:40.754Z,13.81
2018-07-11T00:33:40.760Z,13.76
2018-07-11T00:34:40.760Z,13.73
2018-07-11T00:35:40.756Z,13.76
2018-07-11T00:36:40.765Z,13.69
2018-07-11T00:37:40.759Z,13.70
2018-07-11T00:38:40.761Z,13.63
2018-07-11T00:39:40.759Z,13.61
2018-07-11T00:40:40.760Z,13.58
2018-07-11T00:41:40.761Z,13.71
2018-07-11T00:42:40.761Z,13.70
2018-07-11T00:43:40.759Z,13.69
2018-07-11T00:44:40.787Z,13.69
2018-07-11T00:45:40.788Z,13.70
2018-07-11T00:46:40.764Z,13.61
2018-07-11T00:47:40.765Z,13.67
2018-07-11T00:48:40.770Z,13.69
2018-07-11T00:49:40.767Z,13.71
2018-07-11T00:50:40.766Z,13.71
2018-07-11T00:51:40.767Z,13.71
2018-07-11T00:52:40.767Z,13.63
2018-07-11T00:53:40.767Z,13.65
2018-07-11T00:54:40.771Z,13.61
2018-07-11T00:55:40.782Z,13.61
2018-07-11T00:56:40.775Z,13.61
2018-07-11T00:57:40.776Z,13.73
2018-07-11T00:58:40.779Z,13.61
2018-07-11T00:59:40.770Z,13.61
2018-07-11T01:00:40.769Z,13.62
2018-07-11T01:01:40.771Z,13.63
2018-07-11T01:02:40.772Z,13.67
2018-07-11T01:03:40.772Z,13.59
2018-07-11T01:04:40.776Z,13.61
2018-07-11T01:05:40.788Z,13.61
2018-07-11T01:06:40.788Z,13.56
2018-07-11T01:07:40.777Z,13.54
2018-07-11T01:08:40.775Z,13.62
2018-07-11T01:09:40.775Z,13.59
2018-07-11T01:10:40.776Z,13.59
2018-07-11T01:11:40.778Z,13.55
2018-07-11T01:12:40.774Z,13.55
2018-07-11T01:13:40.779Z,13.52
2018-07-11T01:14:40.774Z,13.54
2018-07-11T01:15:40.781Z,13.55
2018-07-11T01:16:40.782Z,13.61
2018-07-11T01:17:40.780Z,13.52
2018-07-11T01:18:40.781Z,13.62
2018-07-11T01:19:40.789Z,13.67
2018-07-11T01:20:40.784Z,13.54
2018-07-11T01:21:40.782Z,13.63
2018-07-11T01:22:40.781Z,13.54
2018-07-11T01:23:40.785Z,13.61
2018-07-11T01:24:40.783Z,13.54
2018-07-11T01:25:40.789Z,13.51
2018-07-11T01:26:40.782Z,13.54
2018-07-11T01:27:40.783Z,13.51
2018-07-11T01:28:40.793Z,13.54
2018-07-11T01:29:40.793Z,13.52
2018-07-11T01:30:40.784Z,13.59
2018-07-11T01:31:40.783Z,13.58
2018-07-11T01:32:40.784Z,13.62
2018-07-11T01:33:40.790Z,13.69
2018-07-11T01:34:40.786Z,13.59
2018-07-11T01:35:40.788Z,13.52
2018-07-11T01:36:40.789Z,13.61
2018-07-11T01:37:40.789Z,13.62
2018-07-11T01:38:40.790Z,13.59
2018-07-11T01:39:40.794Z,13.58
2018-07-11T01:40:40.788Z,13.65
2018-07-11T01:41:40.791Z,13.63
2018-07-11T01:42:40.796Z,13.51
2018-07-11T01:43:40.795Z,13.52
2018-07-11T01:44:40.793Z,13.55
2018-07-11T01:45:40.792Z,13.62
2018-07-11T01:46:40.793Z,13.49
2018-07-11T01:47:40.793Z,13.65
2018-07-11T01:48:40.791Z,13.55
2018-07-11T01:49:40.796Z,13.54
2018-07-11T01:50:40.793Z,13.59
2018-07-11T01:51:40.802Z,13.55
2018-07-11T01:52:40.793Z,13.55
2018-07-11T01:53:40.797Z,13.69
2018-07-11T01:54:40.794Z,13.58
2018-07-11T01:55:40.797Z,13.55
2018-07-11T01:56:40.796Z,13.65
2018-07-11T01:57:40.795Z,13.69
2018-07-11T01:58:40.796Z,13.58
2018-07-11T01:59:40.796Z,13.54
2018-07-11T02:00:40.800Z,13.58
2018-07-11T02:01:40.802Z,13.56
2018-07-11T02:02:40.798Z,13.63
2018-07-11T02:03:40.796Z,13.51
2018-07-11T02:04:40.798Z,13.58
2018-07-11T02:05:40.803Z,13.55
2018-07-11T02:06:40.796Z,13.54
2018-07-11T02:07:40.801Z,13.54
2018-07-11T02:08:40.800Z,13.54
2018-07-11T02:09:40.801Z,13.49
2018-07-11T02:10:40.801Z,13.44
2018-07-11T02:11:40.800Z,13.63
2018-07-11T02:12:40.801Z,13.58
2018-07-11T02:13:40.804Z,13.58
2018-07-11T02:14:40.805Z,13.59
2018-07-11T02:15:40.815Z,13.71
2018-07-11T02:16:40.817Z,13.62
2018-07-11T02:17:40.811Z,13.63
2018-07-11T02:18:40.802Z,13.62
2018-07-11T02:19:40.804Z,13.73
2018-07-11T02:20:40.805Z,13.62
2018-07-11T02:21:40.807Z,13.71
2018-07-11T02:22:40.806Z,13.61
2018-07-11T02:23:40.806Z,13.69
2018-07-11T02:24:40.806Z,13.69
2018-07-11T02:25:40.809Z,13.71
2018-07-11T02:26:40.808Z,13.71
2018-07-11T02:27:40.808Z,13.71
2018-07-11T02:28:40.808Z,13.73
2018-07-11T02:29:40.810Z,13.71
2018-07-11T02:30:40.810Z,13.69
2018-07-11T02:31:40.812Z,13.77
2018-07-11T02:32:40.813Z,13.80
2018-07-11T02:33:40.814Z,13.73
2018-07-11T02:34:40.811Z,13.70
2018-07-11T02:35:40.814Z,13.73
2018-07-11T02:36:40.815Z,13.74
2018-07-11T02:37:40.817Z,13.61
2018-07-11T02:38:40.839Z,13.69
2018-07-11T02:39:40.814Z,13.74
2018-07-11T02:40:40.816Z,13.69
2018-07-11T02:41:40.815Z,13.71
2018-07-11T02:42:40.817Z,13.73
2018-07-11T02:43:40.817Z,13.70
2018-07-11T02:44:40.817Z,13.74
2018-07-11T02:45:40.819Z,13.71
2018-07-11T02:46:40.817Z,13.70
2018-07-11T02:47:40.816Z,13.74
2018-07-11T02:48:40.818Z,13.61
2018-07-11T02:49:40.827Z,13.62
2018-07-11T02:50:40.821Z,13.61
2018-07-11T02:51:40.820Z,13.61
2018-07-11T02:52:40.825Z,13.63
2018-07-11T02:53:40.822Z,13.65
2018-07-11T02:54:40.828Z,13.65
2018-07-11T02:55:40.830Z,13.56
2018-07-11T02:56:40.824Z,13.59
2018-07-11T02:57:40.823Z,13.62
2018-07-11T02:58:40.823Z,13.62
2018-07-11T02:59:40.828Z,13.73
2018-07-11T03:00:40.824Z,13.69
2018-07-11T03:01:40.822Z,13.63
2018-07-11T03:02:40.828Z,13.70
2018-07-11T03:03:40.826Z,13.76
2018-07-11T03:04:40.828Z,13.73
2018-07-11T03:05:40.828Z,13.73
2018-07-11T03:06:40.831Z,13.77
2018-07-11T03:07:40.827Z,13.74
2018-07-11T03:08:40.831Z,13.76
2018-07-11T03:09:40.833Z,13.67
2018-07-11T03:10:40.830Z,13.73
2018-07-11T03:11:40.829Z,13.70
2018-07-11T03:12:40.831Z,13.65
2018-07-11T03:13:40.840Z,13.73
2018-07-11T03:14:40.831Z,13.74
2018-07-11T03:15:40.831Z,13.67
2018-07-11T03:16:40.831Z,13.73
2018-07-11T03:17:40.833Z,13.71
2018-07-11T03:18:40.832Z,13.79
2018-07-11T03:19:40.832Z,13.80
2018-07-11T03:20:40.834Z,13.83
2018-07-11T03:21:40.834Z,13.83
2018-07-11T03:22:40.831Z,13.79
2018-07-11T03:23:40.833Z,13.84
2018-07-11T03:24:40.836Z,13.92
2018-07-11T03:25:40.837Z,13.94
2018-07-11T03:26:40.836Z,13.92
2018-07-11T03:27:40.842Z,13.94
2018-07-11T03:28:40.848Z,14.01
2018-07-11T03:29:40.844Z,13.91
2018-07-11T03:30:40.850Z,13.91
2018-07-11T03:31:40.839Z,13.87
2018-07-11T03:32:40.873Z,14.01
2018-07-11T03:33:40.844Z,13.94
2018-07-11T03:34:40.848Z,13.92
2018-07-11T03:35:40.851Z,13.91
2018-07-11T03:36:40.842Z,13.89
2018-07-11T03:37:40.844Z,13.98
2018-07-11T03:38:40.840Z,13.96
2018-07-11T03:39:40.843Z,13.94
2018-07-11T03:40:40.846Z,13.98
2018-07-11T03:41:40.843Z,14.02
2018-07-11T03:42:40.857Z,13.89
2018-07-11T03:43:40.870Z,13.80
2018-07-11T03:44:40.847Z,13.81
2018-07-11T03:45:40.849Z,13.77
2018-07-11T03:46:40.855Z,13.74
2018-07-11T03:47:40.865Z,13.62
2018-07-11T03:48:40.854Z,13.69
2018-07-11T03:49:40.849Z,13.61
2018-07-11T03:50:40.853Z,13.67
2018-07-11T03:51:40.851Z,13.55
2018-07-11T03:52:40.856Z,13.61
2018-07-11T03:53:40.855Z,13.71
2018-07-11T03:54:40.853Z,13.65
2018-07-11T03:55:40.856Z,13.73
2018-07-11T03:56:40.855Z,13.70
2018-07-11T03:57:40.856Z,13.77
2018-07-11T03:58:40.853Z,13.80
2018-07-11T03:59:40.855Z,13.63
2018-07-11T04:00:40.858Z,13.65
2018-07-11T04:01:40.871Z,13.65
2018-07-11T04:02:40.854Z,13.61
2018-07-11T04:03:40.856Z,13.59
2018-07-11T04:04:40.858Z,13.63
2018-07-11T04:05:40.859Z,13.58
2018-07-11T04:06:40.855Z,13.61
2018-07-11T04:07:40.865Z,13.71
2018-07-11T04:08:40.858Z,13.67
2018-07-11T04:09:40.865Z,13.65
2018-07-11T04:10:40.867Z,13.61
2018-07-11T04:11:40.863Z,13.51
2018-07-11T04:12:40.861Z,13.56
2018-07-11T04:13:40.872Z,13.54
2018-07-11T04:14:40.864Z,13.51
2018-07-11T04:15:40.863Z,13.41
2018-07-11T04:16:40.863Z,13.38
2018-07-11T04:17:40.867Z,13.51
2018-07-11T04:18:40.863Z,13.43
2018-07-11T04:19:40.865Z,13.37
2018-07-11T04:20:40.912Z,13.32
2018-07-11T04:21:40.866Z,13.36
2018-07-11T04:22:40.864Z,13.24
2018-07-11T04:23:40.870Z,13.32
2018-07-11T04:24:40.892Z,13.33
2018-07-11T04:25:40.875Z,13.44
2018-07-11T04:26:40.885Z,13.41
2018-07-11T04:27:40.870Z,13.58
2018-07-11T04:28:40.942Z,13.54
2018-07-11T04:29:40.870Z,13.56
2018-07-11T04:30:40.870Z,13.49
2018-07-11T04:31:40.870Z,13.46
2018-07-11T04:32:40.873Z,13.49
2018-07-11T04:33:40.871Z,13.44
2018-07-11T04:34:40.908Z,13.40
2018-07-11T04:35:40.873Z,13.36
2018-07-11T04:36:40.872Z,13.33
2018-07-11T04:37:40.872Z,13.32
2018-07-11T04:38:40.871Z,13.33
2018-07-11T04:39:40.874Z,13.37
2018-07-11T04:40:40.878Z,13.30
2018-07-11T04:41:40.878Z,13.29
2018-07-11T04:42:40.873Z,13.37
2018-07-11T04:43:40.893Z,13.22
2018-07-11T04:44:40.879Z,13.27
2018-07-11T04:45:40.884Z,13.25
2018-07-11T04:46:40.876Z,13.27
2018-07-11T04:47:40.884Z,13.20
2018-07-11T04:48:40.877Z,13.18
2018-07-11T04:49:40.878Z,13.27
2018-07-11T04:50:40.877Z,13.29
2018-07-11T04:51:40.878Z,13.36
2018-07-11T04:52:40.901Z,13.30
2018-07-11T04:53:40.880Z,13.43
2018-07-11T04:54:40.878Z,13.46
2018-07-11T04:55:40.880Z,13.43
2018-07-11T04:56:40.880Z,13.46
2018-07-11T04:57:40.881Z,13.51
2018-07-11T04:58:40.919Z,13.55
2018-07-11T04:59:40.920Z,13.52
2018-07-11T05:00:40.882Z,13.49
2018-07-11T05:01:40.884Z,13.58
2018-07-11T05:02:40.882Z,13.62
2018-07-11T05:03:40.882Z,13.69
2018-07-11T05:04:40.911Z,13.54
2018-07-11T05:05:40.880Z,13.51
2018-07-11T05:06:40.883Z,13.59
2018-07-11T05:07:40.884Z,13.65
2018-07-11T05:08:40.886Z,13.62
2018-07-11T05:09:40.896Z,13.61
2018-07-11T05:10:40.887Z,13.70
2018-07-11T05:11:40.886Z,13.76
2018-07-11T05:12:40.887Z,13.71
2018-07-11T05:13:40.898Z,13.79
2018-07-11T05:14:40.887Z,13.74
2018-07-11T05:15:40.893Z,13.76
2018-07-11T05:16:40.899Z,13.80
2018-07-11T05:17:40.887Z,13.70
2018-07-11T05:18:40.889Z,13.74
2018-07-11T05:19:40.891Z,13.79
2018-07-11T05:20:40.892Z,13.69
2018-07-11T05:21:40.891Z,13.73
2018-07-11T05:22:40.891Z,13.58
2018-07-11T05:23:40.892Z,13.65
2018-07-11T05:24:40.898Z,13.69
2018-07-11T05:25:40.899Z,13.70
2018-07-11T05:26:40.893Z,13.76
2018-07-11T05:27:40.915Z,13.76
2018-07-11T05:28:40.892Z,13.73
2018-07-11T05:29:40.927Z,13.71
2018-07-11T05:30:40.905Z,13.74
2018-07-11T05:31:40.896Z,13.73
2018-07-11T05:32:40.904Z,13.81
2018-07-11T05:33:40.896Z,13.80
2018-07-11T05:34:40.923Z,13.91
2018-07-11T05:35:40.899Z,13.92
2018-07-11T05:36:40.901Z,13.99
2018-07-11T05:37:40.899Z,13.96
2018-07-11T05:38:40.898Z,13.96
2018-07-11T05:39:40.897Z,13.91
2018-07-11T05:40:40.899Z,14.04
2018-07-11T05:41:40.900Z,13.98
2018-07-11T05:42:40.904Z,13.89
2018-07-11T05:43:40.901Z,13.88
2018-07-11T05:44:40.903Z,13.94
2018-07-11T05:45:40.905Z,13.88
2018-07-11T05:46:40.904Z,13.88
2018-07-11T05:47:40.904Z,13.81
2018-07-11T05:48:40.909Z,13.87
2018-07-11T05:49:40.908Z,13.83
2018-07-11T05:50:40.907Z,13.80
2018-07-11T05:51:40.907Z,13.88
2018-07-11T05:52:40.907Z,13.80
2018-07-11T05:53:40.909Z,13.83
2018-07-11T05:54:40.911Z,13.81
2018-07-11T05:55:40.950Z,13.91
2018-07-11T05:56:40.910Z,13.99
2018-07-11T05:57:40.911Z,13.84
2018-07-11T05:58:40.913Z,13.87
2018-07-11T05:59:40.913Z,14.02
2018-07-11T06:00:40.917Z,14.01
2018-07-11T06:01:40.931Z,14.02
2018-07-11T06:02:40.929Z,14.06
2018-07-11T06:03:40.915Z,14.09
2018-07-11T06:04:40.914Z,14.12
2018-07-11T06:05:40.915Z,14.13
2018-07-11T06:06:40.917Z,14.10
2018-07-11T06:07:40.918Z,14.17
2018-07-11T06:08:40.923Z,14.19
2018-07-11T06:09:40.921Z,14.13
2018-07-11T06:10:40.920Z,14.13
2018-07-11T06:11:40.920Z,14.12
2018-07-11T06:12:40.924Z,14.13
2018-07-11T06:13:41.005Z,14.21
2018-07-11T06:14:40.924Z,14.13
2018-07-11T06:15:40.923Z,14.14
2018-07-11T06:16:40.925Z,14.16
2018-07-11T06:17:40.930Z,14.24
2018-07-11T06:18:40.928Z,14.29
2018-07-11T06:19:40.925Z,14.32
2018-07-11T06:20:40.933Z,14.10
2018-07-11T06:21:40.930Z,14.17
2018-07-11T06:22:40.930Z,14.19
2018-07-11T06:23:40.944Z,14.20
2018-07-11T06:24:40.935Z,14.21
2018-07-11T06:25:40.934Z,14.24
2018-07-11T06:26:40.940Z,14.17
2018-07-11T06:27:40.940Z,14.27
2018-07-11T06:28:40.939Z,14.19
2018-07-11T06:29:40.936Z,14.14
2018-07-11T06:30:40.939Z,14.14
2018-07-11T06:31:40.942Z,14.14
2018-07-11T06:32:40.941Z,14.17
2018-07-11T06:33:40.974Z,14.27
2018-07-11T06:34:40.942Z,14.17
2018-07-11T06:35:40.947Z,14.31
2018-07-11T06:36:40.943Z,14.25
2018-07-11T06:37:40.947Z,14.28
2018-07-11T06:38:40.943Z,14.27
2018-07-11T06:39:40.947Z,14.35
2018-07-11T06:40:40.947Z,14.46
2018-07-11T06:41:40.949Z,14.54
2018-07-11T06:42:41.141Z,14.62
2018-07-11T06:43:40.969Z,14.64
2018-07-11T06:44:40.952Z,14.53
2018-07-11T06:45:40.952Z,14.60
2018-07-11T06:46:40.955Z,14.64
2018-07-11T06:47:40.956Z,14.68
2018-07-11T06:48:40.956Z,14.62
2018-07-11T06:49:40.959Z,14.74
2018-07-11T06:50:40.955Z,14.78
2018-07-11T06:51:40.959Z,14.80
2018-07-11T06:52:40.961Z,14.94
2018-07-11T06:53:40.961Z,14.93
2018-07-11T06:54:40.964Z,14.91
2018-07-11T06:55:40.974Z,15.01
2018-07-11T06:56:40.967Z,14.99
2018-07-11T06:57:41.057Z,14.99
2018-07-11T06:58:40.969Z,15.09
2018-07-11T06:59:40.971Z,15.08
2018-07-11T07:00:40.973Z,15.03
2018-07-11T07:01:40.976Z,15.11
2018-07-11T07:02:40.975Z,15.11
2018-07-11T07:03:40.977Z,15.21
2018-07-11T07:04:40.978Z,15.31
2018-07-11T07:05:40.981Z,15.38
2018-07-11T07:06:40.985Z,15.54
2018-07-11T07:07:40.985Z,15.49
2018-07-11T07:08:40.989Z,15.42
2018-07-11T07:09:40.987Z,15.51
2018-07-11T07:10:42.680Z,15.59
2018-07-11T07:11:40.990Z,15.63
2018-07-11T07:12:40.991Z,15.63
2018-07-11T07:13:40.993Z,15.81
2018-07-11T07:14:40.998Z,15.84
2018-07-11T07:15:40.997Z,15.97
2018-07-11T07:16:41.060Z,15.96
2018-07-11T07:17:41.003Z,16.04
2018-07-11T07:18:41.007Z,16.45
2018-07-11T07:19:41.007Z,16.75
2018-07-11T07:20:41.048Z,16.78
2018-07-11T07:21:41.014Z,16.85
2018-07-11T07:22:41.017Z,16.96
2018-07-11T07:23:41.018Z,17.13
2018-07-11T07:24:41.021Z,17.51
2018-07-11T07:25:41.023Z,17.53
2018-07-11T07:26:41.025Z,17.78
2018-07-11T07:27:41.187Z,17.95
2018-07-11T07:28:41.105Z,17.88
2018-07-11T07:29:41.047Z,17.78
2018-07-11T07:30:41.061Z,17.38
2018-07-11T07:31:41.046Z,17.20
2018-07-11T07:32:41.155Z,17.08
2018-07-11T07:33:41.049Z,16.92
2018-07-11T07:34:41.055Z,16.86
2018-07-11T07:35:41.059Z,16.81
2018-07-11T07:36:41.071Z,17.06
2018-07-11T07:37:41.064Z,17.14
2018-07-11T07:38:41.065Z,17.10
2018-07-11T07:39:41.071Z,17.62
2018-07-11T07:40:41.075Z,17.87
2018-07-11T07:41:41.345Z,18.15
2018-07-11T07:42:41.080Z,18.06
2018-07-11T07:43:41.085Z,17.88
2018-07-11T07:44:41.325Z,17.87
2018-07-11T07:45:41.092Z,17.57
2018-07-11T07:46:41.096Z,17.48
2018-07-11T07:47:41.100Z,17.18
2018-07-11T07:48:41.155Z,17.08
2018-07-11T07:49:41.108Z,17.08
2018-07-11T07:50:41.109Z,16.85
2018-07-11T07:51:41.116Z,16.80
2018-07-11T07:52:41.119Z,16.95
2018-07-11T07:53:41.123Z,16.93
2018-07-11T07:54:41.153Z,16.95
2018-07-11T07:55:41.131Z,17.04
2018-07-11T07:56:41.135Z,17.15
2018-07-11T07:57:41.139Z,17.25
2018-07-11T07:58:41.146Z,17.43
2018-07-11T07:59:41.146Z,17.38
2018-07-11T08:00:41.148Z,17.36
2018-07-11T08:01:41.159Z,17.47
2018-07-11T08:02:41.156Z,17.53
2018-07-11T08:03:41.183Z,17.67
2018-07-11T08:04:41.202Z,17.89
2018-07-11T08:05:41.175Z,17.84
2018-07-11T08:06:41.176Z,18.19
2018-07-11T08:07:41.175Z,18.33
2018-07-11T08:08:41.181Z,18.33
2018-07-11T08:09:41.186Z,18.37
2018-07-11T08:10:41.365Z,18.37
2018-07-11T08:11:41.206Z,18.67
2018-07-11T08:12:41.249Z,18.92
2018-07-11T08:13:41.204Z,19.13
2018-07-11T08:14:41.216Z,19.48
2018-07-11T08:15:41.213Z,19.57
2018-07-11T08:16:41.217Z,19.66
2018-07-11T08:17:41.221Z,19.73
2018-07-11T08:18:41.228Z,20.02
2018-07-11T08:19:41.231Z,20.13
2018-07-11T08:20:41.238Z,20.30
2018-07-11T08:21:41.245Z,20.46
2018-07-11T08:22:41.248Z,20.69
2018-07-11T08:23:41.256Z,20.96
2018-07-11T08:24:41.259Z,20.95
2018-07-11T08:25:42.196Z,20.83
2018-07-11T08:26:41.273Z,20.89
2018-07-11T08:27:41.280Z,20.90
2018-07-11T08:28:41.286Z,20.42
2018-07-11T08:29:41.292Z,20.35
2018-07-11T08:30:41.296Z,20.56
2018-07-11T08:31:41.307Z,20.89
2018-07-11T08:32:41.313Z,21.32
2018-07-11T08:33:41.321Z,21.53
2018-07-11T08:34:41.386Z,21.67
2018-07-11T08:35:41.336Z,21.90
2018-07-11T08:36:41.357Z,22.02
2018-07-11T08:37:41.353Z,22.13
2018-07-11T08:38:41.361Z,21.98
2018-07-11T08:39:41.373Z,22.13
2018-07-11T08:40:41.377Z,22.23
2018-07-11T08:41:41.403Z,22.07
2018-07-11T08:42:41.392Z,22.01
2018-07-11T08:43:41.406Z,21.91
2018-07-11T08:44:41.414Z,21.97
2018-07-11T08:45:41.490Z,21.88
2018-07-11T08:46:41.443Z,21.74
2018-07-11T08:47:41.460Z,21.83
2018-07-11T08:48:41.467Z,21.97
2018-07-11T08:49:41.463Z,22.01
2018-07-11T08:50:41.470Z,21.90
2018-07-11T08:51:41.623Z,21.97
2018-07-11T08:52:41.828Z,21.71
2018-07-11T08:53:41.498Z,21.34
2018-07-11T08:54:41.507Z,21.36
2018-07-11T08:55:41.517Z,21.21
2018-07-11T08:56:41.524Z,21.34
2018-07-11T08:57:41.533Z,21.39
2018-07-11T08:58:41.544Z,21.71
2018-07-11T08:59:41.553Z,21.88
2018-07-11T09:00:41.560Z,21.56
2018-07-11T09:01:41.572Z,21.36
2018-07-11T09:02:41.616Z,21.45
2018-07-11T09:03:41.587Z,21.23
2018-07-11T09:04:41.598Z,21.27
2018-07-11T09:05:41.605Z,21.13
2018-07-11T09:06:41.617Z,20.90
2018-07-11T09:07:41.620Z,20.93
2018-07-11T09:08:41.628Z,20.81
2018-07-11T09:09:41.637Z,20.74
2018-07-11T09:10:41.649Z,20.64
2018-07-11T09:11:41.653Z,20.62
2018-07-11T09:12:41.658Z,20.58
2018-07-11T09:13:41.682Z,20.61
2018-07-11T09:14:41.670Z,20.51
2018-07-11T09:15:41.679Z,20.33
2018-07-11T09:16:41.782Z,20.05
2018-07-11T09:17:41.702Z,20.00
2018-07-11T09:18:41.700Z,19.83
2018-07-11T09:19:41.705Z,19.75
2018-07-11T09:20:41.713Z,19.47
2018-07-11T09:21:41.718Z,19.17
2018-07-11T09:22:42.057Z,19.10
2018-07-11T09:23:41.746Z,19.06
2018-07-11T09:24:41.739Z,19.15
2018-07-11T09:25:41.742Z,19.20
2018-07-11T09:26:41.749Z,18.91
2018-07-11T09:27:41.776Z,18.94
2018-07-11T09:28:41.762Z,18.99
2018-07-11T09:29:41.773Z,19.01
2018-07-11T09:30:41.775Z,19.13
2018-07-11T09:31:41.781Z,19.01
2018-07-11T09:32:41.904Z,18.99
2018-07-11T09:33:41.790Z,19.06
2018-07-11T09:34:41.975Z,19.06
2018-07-11T09:35:41.798Z,19.02
2018-07-11T09:36:41.805Z,18.99
2018-07-11T09:37:41.871Z,18.59
2018-07-11T09:38:41.816Z,18.59
2018-07-11T09:39:41.822Z,18.77
2018-07-11T09:40:41.826Z,18.87
2018-07-11T09:41:41.834Z,19.10
2018-07-11T09:42:41.839Z,19.17
2018-07-11T09:43:41.842Z,19.21
2018-07-11T09:44:41.849Z,19.33
2018-07-11T09:45:41.855Z,19.35
2018-07-11T09:46:41.859Z,19.39
2018-07-11T09:47:41.918Z,19.36
2018-07-11T09:48:41.870Z,19.39
2018-07-11T09:49:41.882Z,19.48
2018-07-11T09:50:41.880Z,19.57
2018-07-11T09:51:41.888Z,19.66
2018-07-11T09:52:41.891Z,19.63
2018-07-11T09:53:41.914Z,19.58
2018-07-11T09:54:41.901Z,19.36
2018-07-11T09:55:41.906Z,19.35
2018-07-11T09:56:41.912Z,19.05
2018-07-11T09:57:41.956Z,19.23
2018-07-11T09:58:41.924Z,19.28
2018-07-11T09:59:41.930Z,19.33
2018-07-11T10:00:41.935Z,19.32
2018-07-11T10:01:41.938Z,19.48
2018-07-11T10:02:42.032Z,19.43
2018-07-11T10:03:41.948Z,19.38
2018-07-11T10:04:41.953Z,19.23
2018-07-11T10:05:41.956Z,19.17
2018-07-11T10:06:41.964Z,19.24
2018-07-11T10:07:41.966Z,19.36
2018-07-11T10:08:41.974Z,19.39
2018-07-11T10:09:41.979Z,19.36
2018-07-11T10:10:42.001Z,19.47
2018-07-11T10:11:41.997Z,19.54
2018-07-11T10:12:42.027Z,19.65
2018-07-11T10:13:42.097Z,19.65
2018-07-11T10:14:42.004Z,19.55
2018-07-11T10:15:42.018Z,19.65
2018-07-11T10:16:42.018Z,19.86
2018-07-11T10:17:42.018Z,19.83
2018-07-11T10:18:42.029Z,19.95
2018-07-11T10:19:42.028Z,20.21
2018-07-11T10:20:42.035Z,20.33
2018-07-11T10:21:42.059Z,20.47
2018-07-11T10:22:42.045Z,20.69
2018-07-11T10:23:42.049Z,20.96
2018-07-11T10:24:42.259Z,21.16
2018-07-11T10:25:42.081Z,21.54
2018-07-11T10:26:42.072Z,21.82
2018-07-11T10:27:42.075Z,22.04
2018-07-11T10:28:42.079Z,22.23
2018-07-11T10:29:42.082Z,22.35
2018-07-11T10:30:42.088Z,22.38
2018-07-11T10:31:42.103Z,22.53
2018-07-11T10:32:42.096Z,22.39
2018-07-11T10:33:42.203Z,22.62
2018-07-11T10:34:42.108Z,22.67
2018-07-11T10:35:42.114Z,22.92
2018-07-11T10:36:42.120Z,23.09
2018-07-11T10:37:42.126Z,22.80
2018-07-11T10:38:42.133Z,22.57
2018-07-11T10:39:42.142Z,22.53
2018-07-11T10:40:42.151Z,22.59
2018-07-11T10:41:42.152Z,22.50
2018-07-11T10:42:42.155Z,22.53
2018-07-11T10:43:42.164Z,22.60
2018-07-11T10:44:42.171Z,22.69
2018-07-11T10:45:42.171Z,22.96
2018-07-11T10:46:42.178Z,23.15
2018-07-11T10:47:42.182Z,22.99
2018-07-11T10:48:42.190Z,22.93
2018-07-11T10:49:42.204Z,23.01
2018-07-11T10:50:42.209Z,22.94
2018-07-11T10:51:42.207Z,22.78
2018-07-11T10:52:42.231Z,22.89
2018-07-11T10:53:42.224Z,22.80
2018-07-11T10:54:42.229Z,22.94
2018-07-11T10:55:42.437Z,22.83
2018-07-11T10:56:42.326Z,22.96
2018-07-11T10:57:42.316Z,23.12
2018-07-11T10:58:42.249Z,23.01
2018-07-11T10:59:42.254Z,22.65
2018-07-11T11:00:42.286Z,22.71
2018-07-11T11:01:42.267Z,22.82
2018-07-11T11:02:42.327Z,23.07
2018-07-11T11:03:42.276Z,23.31
2018-07-11T11:04:42.341Z,23.61
2018-07-11T11:05:42.292Z,23.31
2018-07-11T11:06:42.296Z,23.26
2018-07-11T11:07:42.302Z,23.27
2018-07-11T11:08:42.308Z,23.40
2018-07-11T11:09:42.313Z,23.52
2018-07-11T11:10:42.320Z,23.46
2018-07-11T11:11:42.334Z,23.29
2018-07-11T11:12:42.335Z,23.20
2018-07-11T11:13:42.341Z,23.04
2018-07-11T11:14:42.432Z,22.74
2018-07-11T11:15:42.350Z,22.59
2018-07-11T11:16:42.362Z,22.52
2018-07-11T11:17:42.364Z,22.28
2018-07-11T11:18:42.556Z,22.04
2018-07-11T11:19:43.188Z,22.12
2018-07-11T11:20:42.384Z,22.07
2018-07-11T11:21:42.387Z,22.04
2018-07-11T11:22:42.404Z,21.97
2018-07-11T11:23:42.397Z,21.95
2018-07-11T11:24:42.406Z,21.88
2018-07-11T11:25:42.431Z,21.75
2018-07-11T11:26:42.435Z,21.66
2018-07-11T11:27:42.423Z,21.54
2018-07-11T11:28:42.430Z,21.56
2018-07-11T11:29:42.433Z,21.57
2018-07-11T11:30:42.439Z,21.50
2018-07-11T11:31:42.446Z,21.48
2018-07-11T11:32:42.451Z,21.46
2018-07-11T11:33:42.457Z,21.36
2018-07-11T11:34:42.462Z,21.13
2018-07-11T11:35:42.486Z,21.13
2018-07-11T11:36:42.481Z,21.01
2018-07-11T11:37:42.483Z,21.02
2018-07-11T11:38:42.489Z,20.96
2018-07-11T11:39:42.491Z,20.86
2018-07-11T11:40:42.500Z,20.65
2018-07-11T11:41:42.537Z,20.66
2018-07-11T11:42:42.592Z,20.74
2018-07-11T11:43:42.514Z,20.77
2018-07-11T11:44:42.521Z,20.76
2018-07-11T11:45:42.528Z,20.81
2018-07-11T11:46:42.536Z,20.84
2018-07-11T11:47:42.536Z,20.89
2018-07-11T11:48:42.541Z,20.86
2018-07-11T11:49:42.548Z,21.02
2018-07-11T11:50:42.553Z,21.01
2018-07-11T11:51:42.565Z,20.90
2018-07-11T11:52:42.568Z,20.84
2018-07-11T11:53:42.574Z,20.89
2018-07-11T11:54:42.579Z,21.02
2018-07-11T11:55:42.587Z,21.01
2018-07-11T11:56:42.585Z,21.21
2018-07-11T11:57:42.592Z,21.29
2018-07-11T11:58:43.259Z,21.41
2018-07-11T11:59:42.603Z,21.51
2018-07-11T12:00:42.605Z,21.53
2018-07-11T12:01:42.689Z,21.60
2018-07-11T12:02:42.616Z,21.59
2018-07-11T12:03:42.623Z,21.56
2018-07-11T12:04:42.629Z,21.53
2018-07-11T12:05:42.634Z,21.26
2018-07-11T12:06:42.643Z,20.98
2018-07-11T12:07:42.644Z,21.04
2018-07-11T12:08:42.655Z,21.01
2018-07-11T12:09:42.655Z,21.11
2018-07-11T12:10:42.684Z,21.27
2018-07-11T12:11:42.676Z,21.38
2018-07-11T12:12:42.691Z,21.41
2018-07-11T12:13:42.677Z,21.44
2018-07-11T12:14:42.684Z,21.51
2018-07-11T12:15:42.691Z,21.59
2018-07-11T12:16:42.696Z,21.59
2018-07-11T12:17:42.701Z,21.57
2018-07-11T12:18:42.732Z,21.67
2018-07-11T12:19:42.710Z,21.74
2018-07-11T12:20:42.717Z,21.76
2018-07-11T12:21:42.745Z,21.75
2018-07-11T12:22:42.739Z,21.69
2018-07-11T12:23:42.733Z,21.67
2018-07-11T12:24:42.739Z,21.54
2018-07-11T12:25:42.747Z,21.32
2018-07-11T12:26:42.749Z,21.19
2018-07-11T12:27:42.756Z,21.20
2018-07-11T12:28:42.759Z,21.05
2018-07-11T12:29:42.812Z,21.01
2018-07-11T12:30:42.772Z,21.04
2018-07-11T12:31:42.775Z,21.01
2018-07-11T12:32:42.782Z,20.90
2018-07-11T12:33:42.784Z,20.90
2018-07-11T12:34:42.797Z,20.74
2018-07-11T12:35:42.799Z,20.61
2018-07-11T12:36:42.802Z,20.43
2018-07-11T12:37:42.811Z,20.38
2018-07-11T12:38:42.813Z,20.35
2018-07-11T12:39:42.821Z,20.46
2018-07-11T12:40:42.824Z,20.51
2018-07-11T12:41:42.831Z,20.53
2018-07-11T12:42:42.833Z,20.53
2018-07-11T12:43:42.910Z,20.69
2018-07-11T12:44:42.861Z,20.74
2018-07-11T12:45:42.852Z,20.65
2018-07-11T12:46:42.858Z,20.77
2018-07-11T12:47:42.861Z,20.90
2018-07-11T12:48:42.888Z,20.90
2018-07-11T12:49:42.888Z,20.89
2018-07-11T12:50:42.880Z,21.01
2018-07-11T12:51:42.884Z,21.20
2018-07-11T12:52:42.889Z,21.24